sensor_id;sensor_type;location;lat;lon;timestamp;temperature;humidity
70170;DHT22;57543;45.442;9.212;2022-10-16T00:00:40;20.95;63.37
70170;DHT22;57543;45.442;9.212;2022-10-16T00:03:45;20.93;63.36
70170;DHT22;57543;45.442;9.212;2022-10-16T00:06:48;20.88;63.46
70170;DHT22;57543;45.442;9.212;2022-10-16T00:09:52;20.91;63.30
70170;DHT22;57543;45.442;9.212;2022-10-16T00:12:55;20.88;63.31
70170;DHT22;57543;45.442;9.212;2022-10-16T00:16:00;20.91;63.20
70170;DHT22;57543;45.442;9.212;2022-10-16T00:19:05;20.94;63.11
70170;DHT22;57543;45.442;9.212;2022-10-16T00:22:09;20.90;63.12
70170;DHT22;57543;45.442;9.212;2022-10-16T00:25:28;20.90;63.07
70170;DHT22;57543;45.442;9.212;2022-10-16T00:28:31;20.90;63.12
70170;DHT22;57543;45.442;9.212;2022-10-16T00:31:35;20.88;63.16
70170;DHT22;57543;45.442;9.212;2022-10-16T00:34:39;20.88;63.17
70170;DHT22;57543;45.442;9.212;2022-10-16T00:37:43;20.90;63.28
70170;DHT22;57543;45.442;9.212;2022-10-16T00:40:47;20.86;63.37
70170;DHT22;57543;45.442;9.212;2022-10-16T00:43:56;20.83;63.43
70170;DHT22;57543;45.442;9.212;2022-10-16T00:46:59;20.83;63.55
70170;DHT22;57543;45.442;9.212;2022-10-16T00:50:11;20.81;63.52
70170;DHT22;57543;45.442;9.212;2022-10-16T00:53:17;20.79;63.63
70170;DHT22;57543;45.442;9.212;2022-10-16T00:56:20;20.80;63.61
70170;DHT22;57543;45.442;9.212;2022-10-16T00:59:26;20.73;63.78
70170;DHT22;57543;45.442;9.212;2022-10-16T01:02:31;20.73;63.77
70170;DHT22;57543;45.442;9.212;2022-10-16T01:09:11;20.73;63.75
70170;DHT22;57543;45.442;9.212;2022-10-16T01:16:06;20.73;63.65
70170;DHT22;57543;45.442;9.212;2022-10-16T01:19:20;20.73;63.73
70170;DHT22;57543;45.442;9.212;2022-10-16T01:22:37;20.70;63.70
70170;DHT22;57543;45.442;9.212;2022-10-16T01:29:59;20.67;63.82
70170;DHT22;57543;45.442;9.212;2022-10-16T01:32:50;20.62;63.84
70170;DHT22;57543;45.442;9.212;2022-10-16T01:36:12;20.65;63.85
70170;DHT22;57543;45.442;9.212;2022-10-16T01:39:20;20.66;63.74
70170;DHT22;57543;45.442;9.212;2022-10-16T01:42:30;20.67;63.53
70170;DHT22;57543;45.442;9.212;2022-10-16T01:45:35;20.66;63.49
70170;DHT22;57543;45.442;9.212;2022-10-16T01:48:40;20.67;63.56
70170;DHT22;57543;45.442;9.212;2022-10-16T01:51:46;20.66;63.59
70170;DHT22;57543;45.442;9.212;2022-10-16T01:54:52;20.66;63.64
70170;DHT22;57543;45.442;9.212;2022-10-16T01:57:58;20.62;63.77
70170;DHT22;57543;45.442;9.212;2022-10-16T02:01:04;20.55;64.14
70170;DHT22;57543;45.442;9.212;2022-10-16T02:04:17;20.56;64.09
70170;DHT22;57543;45.442;9.212;2022-10-16T02:07:22;20.55;64.06
70170;DHT22;57543;45.442;9.212;2022-10-16T02:10:25;20.53;64.14
70170;DHT22;57543;45.442;9.212;2022-10-16T02:13:50;20.53;64.12
70170;DHT22;57543;45.442;9.212;2022-10-16T02:16:55;20.53;64.19
70170;DHT22;57543;45.442;9.212;2022-10-16T02:20:00;20.53;64.25
70170;DHT22;57543;45.442;9.212;2022-10-16T02:23:03;20.56;64.29
70170;DHT22;57543;45.442;9.212;2022-10-16T02:26:09;20.53;64.30
70170;DHT22;57543;45.442;9.212;2022-10-16T02:29:17;20.50;64.43
70170;DHT22;57543;45.442;9.212;2022-10-16T02:32:23;20.48;64.59
70170;DHT22;57543;45.442;9.212;2022-10-16T02:35:28;20.38;64.78
70170;DHT22;57543;45.442;9.212;2022-10-16T02:38:36;20.39;64.83
70170;DHT22;57543;45.442;9.212;2022-10-16T02:41:40;20.42;64.80
70170;DHT22;57543;45.442;9.212;2022-10-16T02:44:44;20.45;64.71
70170;DHT22;57543;45.442;9.212;2022-10-16T02:47:48;20.36;64.98
70170;DHT22;57543;45.442;9.212;2022-10-16T02:50:52;20.31;65.16
70170;DHT22;57543;45.442;9.212;2022-10-16T02:53:56;20.35;65.08
70170;DHT22;57543;45.442;9.212;2022-10-16T02:57:00;20.35;65.23
70170;DHT22;57543;45.442;9.212;2022-10-16T03:00:04;20.36;64.99
70170;DHT22;57543;45.442;9.212;2022-10-16T03:03:08;20.36;64.90
70170;DHT22;57543;45.442;9.212;2022-10-16T03:06:12;20.26;65.11
70170;DHT22;57543;45.442;9.212;2022-10-16T03:09:16;20.32;65.02
70170;DHT22;57543;45.442;9.212;2022-10-16T03:12:19;20.32;65.21
70170;DHT22;57543;45.442;9.212;2022-10-16T03:15:22;20.39;65.03
70170;DHT22;57543;45.442;9.212;2022-10-16T03:18:26;20.38;65.08
70170;DHT22;57543;45.442;9.212;2022-10-16T03:21:30;20.36;65.15
70170;DHT22;57543;45.442;9.212;2022-10-16T03:24:33;20.33;65.11
70170;DHT22;57543;45.442;9.212;2022-10-16T03:27:37;20.31;65.33
70170;DHT22;57543;45.442;9.212;2022-10-16T03:30:40;20.22;65.51
70170;DHT22;57543;45.442;9.212;2022-10-16T03:33:44;20.25;65.60
70170;DHT22;57543;45.442;9.212;2022-10-16T03:36:47;20.24;65.57
70170;DHT22;57543;45.442;9.212;2022-10-16T03:39:51;20.26;65.51
70170;DHT22;57543;45.442;9.212;2022-10-16T03:42:55;20.26;65.53
70170;DHT22;57543;45.442;9.212;2022-10-16T03:46:00;20.28;65.42
70170;DHT22;57543;45.442;9.212;2022-10-16T03:49:04;20.28;65.30
70170;DHT22;57543;45.442;9.212;2022-10-16T03:52:08;20.26;65.28
70170;DHT22;57543;45.442;9.212;2022-10-16T03:55:12;20.21;65.40
70170;DHT22;57543;45.442;9.212;2022-10-16T03:58:16;20.20;65.59
70170;DHT22;57543;45.442;9.212;2022-10-16T04:01:20;20.21;65.56
70170;DHT22;57543;45.442;9.212;2022-10-16T04:04:24;20.22;65.34
70170;DHT22;57543;45.442;9.212;2022-10-16T04:07:28;20.24;65.25
70170;DHT22;57543;45.442;9.212;2022-10-16T04:10:32;20.29;65.17
70170;DHT22;57543;45.442;9.212;2022-10-16T04:13:36;20.22;65.23
70170;DHT22;57543;45.442;9.212;2022-10-16T04:16:40;20.18;65.38
70170;DHT22;57543;45.442;9.212;2022-10-16T04:19:43;20.14;65.52
70170;DHT22;57543;45.442;9.212;2022-10-16T04:22:47;20.17;65.57
70170;DHT22;57543;45.442;9.212;2022-10-16T04:25:51;20.13;65.67
70170;DHT22;57543;45.442;9.212;2022-10-16T04:28:55;20.11;65.86
70170;DHT22;57543;45.442;9.212;2022-10-16T04:31:59;20.05;66.14
70170;DHT22;57543;45.442;9.212;2022-10-16T04:35:02;20.03;66.15
70170;DHT22;57543;45.442;9.212;2022-10-16T04:38:06;20.04;66.23
70170;DHT22;57543;45.442;9.212;2022-10-16T04:41:10;20.07;66.00
70170;DHT22;57543;45.442;9.212;2022-10-16T04:44:14;20.03;66.19
70170;DHT22;57543;45.442;9.212;2022-10-16T04:47:18;20.10;66.19
70170;DHT22;57543;45.442;9.212;2022-10-16T04:50:21;20.11;66.14
70170;DHT22;57543;45.442;9.212;2022-10-16T04:53:42;20.04;66.30
70170;DHT22;57543;45.442;9.212;2022-10-16T04:56:45;20.07;66.17
70170;DHT22;57543;45.442;9.212;2022-10-16T04:59:54;20.10;66.15
70170;DHT22;57543;45.442;9.212;2022-10-16T05:02:58;20.05;66.36
70170;DHT22;57543;45.442;9.212;2022-10-16T05:06:05;20.07;66.41
70170;DHT22;57543;45.442;9.212;2022-10-16T05:09:09;20.08;66.34
70170;DHT22;57543;45.442;9.212;2022-10-16T05:12:13;20.07;66.39
70170;DHT22;57543;45.442;9.212;2022-10-16T05:15:17;20.07;66.53
70170;DHT22;57543;45.442;9.212;2022-10-16T05:18:21;20.10;66.45
70170;DHT22;57543;45.442;9.212;2022-10-16T05:21:25;20.07;66.76
70170;DHT22;57543;45.442;9.212;2022-10-16T05:24:28;20.03;66.90
70170;DHT22;57543;45.442;9.212;2022-10-16T05:27:32;20.00;67.01
70170;DHT22;57543;45.442;9.212;2022-10-16T05:30:37;20.01;66.99
70170;DHT22;57543;45.442;9.212;2022-10-16T05:33:40;19.98;67.24
70170;DHT22;57543;45.442;9.212;2022-10-16T05:36:44;19.97;67.20
70170;DHT22;57543;45.442;9.212;2022-10-16T05:39:48;19.98;67.16
70170;DHT22;57543;45.442;9.212;2022-10-16T05:42:55;19.97;67.19
70170;DHT22;57543;45.442;9.212;2022-10-16T05:46:05;19.91;67.37
70170;DHT22;57543;45.442;9.212;2022-10-16T05:49:09;19.93;67.91
70170;DHT22;57543;45.442;9.212;2022-10-16T05:52:13;19.88;68.20
70170;DHT22;57543;45.442;9.212;2022-10-16T05:55:17;19.84;68.43
70170;DHT22;57543;45.442;9.212;2022-10-16T05:58:21;19.86;68.39
70170;DHT22;57543;45.442;9.212;2022-10-16T06:01:25;19.83;68.39
70170;DHT22;57543;45.442;9.212;2022-10-16T06:04:29;19.83;68.32
70170;DHT22;57543;45.442;9.212;2022-10-16T06:07:36;19.88;68.10
70170;DHT22;57543;45.442;9.212;2022-10-16T06:10:40;19.86;67.94
70170;DHT22;57543;45.442;9.212;2022-10-16T06:13:44;19.91;67.89
70170;DHT22;57543;45.442;9.212;2022-10-16T06:16:49;19.91;67.90
70170;DHT22;57543;45.442;9.212;2022-10-16T06:19:53;19.94;67.81
70170;DHT22;57543;45.442;9.212;2022-10-16T06:22:57;19.90;67.98
70170;DHT22;57543;45.442;9.212;2022-10-16T06:26:08;19.90;67.98
70170;DHT22;57543;45.442;9.212;2022-10-16T06:29:12;19.93;67.94
70170;DHT22;57543;45.442;9.212;2022-10-16T06:32:16;20.01;67.74
70170;DHT22;57543;45.442;9.212;2022-10-16T06:35:20;20.03;67.68
70170;DHT22;57543;45.442;9.212;2022-10-16T06:38:24;20.05;67.62
70170;DHT22;57543;45.442;9.212;2022-10-16T06:41:31;20.11;67.60
70170;DHT22;57543;45.442;9.212;2022-10-16T06:44:40;20.10;67.71
70170;DHT22;57543;45.442;9.212;2022-10-16T06:47:43;20.07;67.77
70170;DHT22;57543;45.442;9.212;2022-10-16T06:54:03;20.05;68.02
70170;DHT22;57543;45.442;9.212;2022-10-16T06:57:07;20.08;68.03
70170;DHT22;57543;45.442;9.212;2022-10-16T07:00:11;20.03;67.79
70170;DHT22;57543;45.442;9.212;2022-10-16T07:03:15;20.07;67.80
70170;DHT22;57543;45.442;9.212;2022-10-16T07:06:21;20.14;67.36
70170;DHT22;57543;45.442;9.212;2022-10-16T07:09:25;20.15;67.24
70170;DHT22;57543;45.442;9.212;2022-10-16T07:12:29;20.15;67.23
70170;DHT22;57543;45.442;9.212;2022-10-16T07:15:33;20.20;67.18
70170;DHT22;57543;45.442;9.212;2022-10-16T07:18:37;20.21;67.14
70170;DHT22;57543;45.442;9.212;2022-10-16T07:21:42;20.21;67.22
70170;DHT22;57543;45.442;9.212;2022-10-16T07:24:46;20.24;67.21
70170;DHT22;57543;45.442;9.212;2022-10-16T07:27:49;20.26;67.27
70170;DHT22;57543;45.442;9.212;2022-10-16T07:30:53;20.22;67.24
70170;DHT22;57543;45.442;9.212;2022-10-16T07:33:58;20.26;67.08
70170;DHT22;57543;45.442;9.212;2022-10-16T07:37:02;20.32;67.06
70170;DHT22;57543;45.442;9.212;2022-10-16T07:40:06;20.31;67.07
70170;DHT22;57543;45.442;9.212;2022-10-16T07:43:10;20.31;67.18
70170;DHT22;57543;45.442;9.212;2022-10-16T07:46:14;20.31;67.34
70170;DHT22;57543;45.442;9.212;2022-10-16T07:49:18;20.35;67.20
70170;DHT22;57543;45.442;9.212;2022-10-16T07:52:22;20.38;67.08
70170;DHT22;57543;45.442;9.212;2022-10-16T07:55:26;20.41;66.99
70170;DHT22;57543;45.442;9.212;2022-10-16T07:58:30;20.42;67.05
70170;DHT22;57543;45.442;9.212;2022-10-16T08:01:34;20.46;67.07
70170;DHT22;57543;45.442;9.212;2022-10-16T08:04:38;20.50;66.93
70170;DHT22;57543;45.442;9.212;2022-10-16T08:07:41;20.52;66.58
70170;DHT22;57543;45.442;9.212;2022-10-16T08:10:45;20.53;66.55
70170;DHT22;57543;45.442;9.212;2022-10-16T08:13:49;20.50;66.46
70170;DHT22;57543;45.442;9.212;2022-10-16T08:16:53;20.57;66.46
70170;DHT22;57543;45.442;9.212;2022-10-16T08:19:57;20.56;66.12
70170;DHT22;57543;45.442;9.212;2022-10-16T08:23:01;20.66;65.60
70170;DHT22;57543;45.442;9.212;2022-10-16T08:26:06;20.65;65.55
70170;DHT22;57543;45.442;9.212;2022-10-16T08:29:09;20.70;65.66
70170;DHT22;57543;45.442;9.212;2022-10-16T08:32:13;20.73;65.58
70170;DHT22;57543;45.442;9.212;2022-10-16T08:35:17;20.69;65.78
70170;DHT22;57543;45.442;9.212;2022-10-16T08:38:21;20.79;65.41
70170;DHT22;57543;45.442;9.212;2022-10-16T08:48:27;20.84;64.89
70170;DHT22;57543;45.442;9.212;2022-10-16T08:51:36;20.94;64.75
70170;DHT22;57543;45.442;9.212;2022-10-16T08:54:43;21.07;64.27
70170;DHT22;57543;45.442;9.212;2022-10-16T08:57:49;21.11;63.82
70170;DHT22;57543;45.442;9.212;2022-10-16T09:00:55;21.15;64.02
70170;DHT22;57543;45.442;9.212;2022-10-16T09:04:21;21.15;63.87
70170;DHT22;57543;45.442;9.212;2022-10-16T09:11:13;21.22;64.13
70170;DHT22;57543;45.442;9.212;2022-10-16T09:17:41;21.27;64.08
70170;DHT22;57543;45.442;9.212;2022-10-16T09:21:01;21.32;63.80
70170;DHT22;57543;45.442;9.212;2022-10-16T09:24:15;21.48;63.43
70170;DHT22;57543;45.442;9.212;2022-10-16T09:27:19;21.53;63.40
70170;DHT22;57543;45.442;9.212;2022-10-16T09:30:28;21.50;63.17
70170;DHT22;57543;45.442;9.212;2022-10-16T09:33:37;21.56;63.31
70170;DHT22;57543;45.442;9.212;2022-10-16T09:36:44;21.79;63.00
70170;DHT22;57543;45.442;9.212;2022-10-16T09:39:52;21.98;62.69
70170;DHT22;57543;45.442;9.212;2022-10-16T09:46:28;22.38;60.94
70170;DHT22;57543;45.442;9.212;2022-10-16T09:49:33;22.55;60.47
70170;DHT22;57543;45.442;9.212;2022-10-16T09:52:37;22.57;60.49
70170;DHT22;57543;45.442;9.212;2022-10-16T09:55:51;22.67;60.03
70170;DHT22;57543;45.442;9.212;2022-10-16T09:58:57;22.72;60.08
70170;DHT22;57543;45.442;9.212;2022-10-16T10:02:11;22.80;60.15
70170;DHT22;57543;45.442;9.212;2022-10-16T10:05:28;22.74;59.91
70170;DHT22;57543;45.442;9.212;2022-10-16T10:08:32;22.77;60.05
70170;DHT22;57543;45.442;9.212;2022-10-16T10:14:49;22.81;59.78
70170;DHT22;57543;45.442;9.212;2022-10-16T10:17:56;22.87;59.90
70170;DHT22;57543;45.442;9.212;2022-10-16T10:21:02;22.96;59.53
70170;DHT22;57543;45.442;9.212;2022-10-16T10:24:10;23.00;59.33
70170;DHT22;57543;45.442;9.212;2022-10-16T10:27:16;23.00;59.08
70170;DHT22;57543;45.442;9.212;2022-10-16T10:37:04;23.06;58.93
70170;DHT22;57543;45.442;9.212;2022-10-16T10:50:22;23.07;59.08
70170;DHT22;57543;45.442;9.212;2022-10-16T10:53:50;22.98;58.83
70170;DHT22;57543;45.442;9.212;2022-10-16T10:57:10;23.01;59.21
70170;DHT22;57543;45.442;9.212;2022-10-16T11:07:00;23.67;57.07
70170;DHT22;57543;45.442;9.212;2022-10-16T11:10:13;24.00;56.31
70170;DHT22;57543;45.442;9.212;2022-10-16T11:13:26;24.52;54.05
70170;DHT22;57543;45.442;9.212;2022-10-16T11:16:35;25.58;51.51
70170;DHT22;57543;45.442;9.212;2022-10-16T11:19:55;26.05;50.51
70170;DHT22;57543;45.442;9.212;2022-10-16T11:23:08;26.89;48.59
70170;DHT22;57543;45.442;9.212;2022-10-16T11:26:20;28.10;46.37
70170;DHT22;57543;45.442;9.212;2022-10-16T11:29:27;28.82;44.86
70170;DHT22;57543;45.442;9.212;2022-10-16T11:32:38;28.93;44.38
70170;DHT22;57543;45.442;9.212;2022-10-16T11:42:27;27.00;48.27
70170;DHT22;57543;45.442;9.212;2022-10-16T11:45:42;26.41;49.59
70170;DHT22;57543;45.442;9.212;2022-10-16T11:49:09;26.01;50.45
70170;DHT22;57543;45.442;9.212;2022-10-16T11:52:28;25.83;50.07
70170;DHT22;57543;45.442;9.212;2022-10-16T11:55:40;25.89;50.18
70170;DHT22;57543;45.442;9.212;2022-10-16T11:59:06;25.89;50.43
70170;DHT22;57543;45.442;9.212;2022-10-16T12:02:30;25.87;50.62
70170;DHT22;57543;45.442;9.212;2022-10-16T12:09:00;25.76;50.25
70170;DHT22;57543;45.442;9.212;2022-10-16T12:12:05;25.67;50.00
70170;DHT22;57543;45.442;9.212;2022-10-16T12:15:32;25.70;49.59
70170;DHT22;57543;45.442;9.212;2022-10-16T12:18:36;25.90;50.19
70170;DHT22;57543;45.442;9.212;2022-10-16T12:21:40;26.10;50.00
70170;DHT22;57543;45.442;9.212;2022-10-16T12:24:44;26.10;49.00
70170;DHT22;57543;45.442;9.212;2022-10-16T12:28:40;26.11;49.46
70170;DHT22;57543;45.442;9.212;2022-10-16T12:31:19;26.20;49.22
70170;DHT22;57543;45.442;9.212;2022-10-16T12:37:40;26.39;48.52
70170;DHT22;57543;45.442;9.212;2022-10-16T12:40:46;26.45;47.99
70170;DHT22;57543;45.442;9.212;2022-10-16T12:43:51;26.57;48.09
70170;DHT22;57543;45.442;9.212;2022-10-16T12:46:55;26.72;48.52
70170;DHT22;57543;45.442;9.212;2022-10-16T12:49:59;26.78;48.38
70170;DHT22;57543;45.442;9.212;2022-10-16T12:53:16;26.89;48.09
70170;DHT22;57543;45.442;9.212;2022-10-16T12:56:25;26.93;48.19
70170;DHT22;57543;45.442;9.212;2022-10-16T13:09:47;27.27;46.93
70170;DHT22;57543;45.442;9.212;2022-10-16T13:13:12;27.24;46.75
70170;DHT22;57543;45.442;9.212;2022-10-16T13:20:02;27.25;46.83
70170;DHT22;57543;45.442;9.212;2022-10-16T13:26:42;27.20;47.22
70170;DHT22;57543;45.442;9.212;2022-10-16T13:29:53;27.17;46.35
70170;DHT22;57543;45.442;9.212;2022-10-16T13:33:03;27.23;46.32
70170;DHT22;57543;45.442;9.212;2022-10-16T13:36:19;27.25;46.23
70170;DHT22;57543;45.442;9.212;2022-10-16T13:39:28;27.24;46.39
70170;DHT22;57543;45.442;9.212;2022-10-16T13:42:32;27.20;46.80
70170;DHT22;57543;45.442;9.212;2022-10-16T13:45:36;27.15;46.31
70170;DHT22;57543;45.442;9.212;2022-10-16T13:48:40;27.06;46.41
70170;DHT22;57543;45.442;9.212;2022-10-16T13:51:56;26.94;47.08
70170;DHT22;57543;45.442;9.212;2022-10-16T13:55:01;26.87;47.33
70170;DHT22;57543;45.442;9.212;2022-10-16T13:58:10;26.84;47.54
70170;DHT22;57543;45.442;9.212;2022-10-16T14:01:20;26.82;47.37
70170;DHT22;57543;45.442;9.212;2022-10-16T14:04:30;26.69;47.69
70170;DHT22;57543;45.442;9.212;2022-10-16T14:07:36;26.49;48.37
70170;DHT22;57543;45.442;9.212;2022-10-16T14:10:40;26.39;49.15
70170;DHT22;57543;45.442;9.212;2022-10-16T14:13:45;26.28;48.89
70170;DHT22;57543;45.442;9.212;2022-10-16T14:16:49;26.38;48.18
70170;DHT22;57543;45.442;9.212;2022-10-16T14:19:56;26.37;48.42
70170;DHT22;57543;45.442;9.212;2022-10-16T14:23:01;26.35;48.70
70170;DHT22;57543;45.442;9.212;2022-10-16T14:26:11;26.38;48.12
70170;DHT22;57543;45.442;9.212;2022-10-16T14:29:19;26.32;48.56
70170;DHT22;57543;45.442;9.212;2022-10-16T14:32:25;26.25;48.72
70170;DHT22;57543;45.442;9.212;2022-10-16T14:35:34;26.21;48.57
70170;DHT22;57543;45.442;9.212;2022-10-16T14:38:39;26.11;48.31
70170;DHT22;57543;45.442;9.212;2022-10-16T14:41:46;26.03;48.47
70170;DHT22;57543;45.442;9.212;2022-10-16T14:44:51;25.93;48.79
70170;DHT22;57543;45.442;9.212;2022-10-16T14:48:16;25.97;48.80
70170;DHT22;57543;45.442;9.212;2022-10-16T14:51:21;25.98;49.07
70170;DHT22;57543;45.442;9.212;2022-10-16T14:54:25;25.98;49.13
70170;DHT22;57543;45.442;9.212;2022-10-16T14:57:31;25.98;48.63
70170;DHT22;57543;45.442;9.212;2022-10-16T15:00:37;25.98;48.52
70170;DHT22;57543;45.442;9.212;2022-10-16T15:03:40;25.98;48.63
70170;DHT22;57543;45.442;9.212;2022-10-16T15:06:44;25.87;49.39
70170;DHT22;57543;45.442;9.212;2022-10-16T15:09:48;25.77;49.69
70170;DHT22;57543;45.442;9.212;2022-10-16T15:12:52;25.75;49.54
70170;DHT22;57543;45.442;9.212;2022-10-16T15:15:56;25.75;49.50
70170;DHT22;57543;45.442;9.212;2022-10-16T15:19:01;25.72;49.47
70170;DHT22;57543;45.442;9.212;2022-10-16T15:22:05;25.69;49.40
70170;DHT22;57543;45.442;9.212;2022-10-16T15:25:47;25.66;49.49
70170;DHT22;57543;45.442;9.212;2022-10-16T15:28:51;25.58;49.82
70170;DHT22;57543;45.442;9.212;2022-10-16T15:31:54;25.58;49.71
70170;DHT22;57543;45.442;9.212;2022-10-16T15:34:58;25.55;49.66
70170;DHT22;57543;45.442;9.212;2022-10-16T15:38:01;25.42;49.90
70170;DHT22;57543;45.442;9.212;2022-10-16T15:41:05;25.31;50.34
70170;DHT22;57543;45.442;9.212;2022-10-16T15:44:08;25.28;50.64
70170;DHT22;57543;45.442;9.212;2022-10-16T15:47:12;25.17;50.92
70170;DHT22;57543;45.442;9.212;2022-10-16T15:50:16;25.10;51.16
70170;DHT22;57543;45.442;9.212;2022-10-16T15:53:20;25.00;51.49
70170;DHT22;57543;45.442;9.212;2022-10-16T15:56:24;24.91;51.62
70170;DHT22;57543;45.442;9.212;2022-10-16T15:59:28;24.84;51.75
70170;DHT22;57543;45.442;9.212;2022-10-16T16:02:32;24.75;52.07
70170;DHT22;57543;45.442;9.212;2022-10-16T16:05:38;24.66;52.20
70170;DHT22;57543;45.442;9.212;2022-10-16T16:08:43;24.55;52.36
70170;DHT22;57543;45.442;9.212;2022-10-16T16:11:46;24.45;52.45
70170;DHT22;57543;45.442;9.212;2022-10-16T16:14:50;24.41;52.90
70170;DHT22;57543;45.442;9.212;2022-10-16T16:17:54;24.29;54.12
70170;DHT22;57543;45.442;9.212;2022-10-16T16:20:57;24.26;54.38
70170;DHT22;57543;45.442;9.212;2022-10-16T16:24:01;24.20;55.09
70170;DHT22;57543;45.442;9.212;2022-10-16T16:27:11;24.10;55.30
70170;DHT22;57543;45.442;9.212;2022-10-16T16:30:15;24.03;54.37
70170;DHT22;57543;45.442;9.212;2022-10-16T16:33:18;24.00;54.17
70170;DHT22;57543;45.442;9.212;2022-10-16T16:36:21;23.92;55.23
70170;DHT22;57543;45.442;9.212;2022-10-16T16:39:25;23.84;56.23
70170;DHT22;57543;45.442;9.212;2022-10-16T16:42:28;23.76;56.57
70170;DHT22;57543;45.442;9.212;2022-10-16T16:45:35;23.65;57.10
70170;DHT22;57543;45.442;9.212;2022-10-16T16:48:39;23.51;57.43
70170;DHT22;57543;45.442;9.212;2022-10-16T16:51:43;23.41;57.55
70170;DHT22;57543;45.442;9.212;2022-10-16T16:54:47;23.38;57.88
70170;DHT22;57543;45.442;9.212;2022-10-16T16:57:55;23.28;58.72
70170;DHT22;57543;45.442;9.212;2022-10-16T17:01:00;23.18;58.86
70170;DHT22;57543;45.442;9.212;2022-10-16T17:04:05;23.14;58.80
70170;DHT22;57543;45.442;9.212;2022-10-16T17:07:09;23.07;58.91
70170;DHT22;57543;45.442;9.212;2022-10-16T17:10:12;23.04;59.04
70170;DHT22;57543;45.442;9.212;2022-10-16T17:13:15;22.94;59.32
70170;DHT22;57543;45.442;9.212;2022-10-16T17:16:22;22.89;59.51
70170;DHT22;57543;45.442;9.212;2022-10-16T17:19:26;22.84;59.66
70170;DHT22;57543;45.442;9.212;2022-10-16T17:22:30;22.74;59.96
70170;DHT22;57543;45.442;9.212;2022-10-16T17:25:41;22.70;59.99
70170;DHT22;57543;45.442;9.212;2022-10-16T17:28:44;22.69;60.43
70170;DHT22;57543;45.442;9.212;2022-10-16T17:31:48;22.63;60.83
70170;DHT22;57543;45.442;9.212;2022-10-16T17:34:52;22.64;60.61
70170;DHT22;57543;45.442;9.212;2022-10-16T17:37:56;22.63;60.46
70170;DHT22;57543;45.442;9.212;2022-10-16T17:41:12;22.64;60.33
70170;DHT22;57543;45.442;9.212;2022-10-16T17:44:16;22.51;61.07
70170;DHT22;57543;45.442;9.212;2022-10-16T17:47:22;22.42;61.47
70170;DHT22;57543;45.442;9.212;2022-10-16T17:50:26;22.34;61.67
70170;DHT22;57543;45.442;9.212;2022-10-16T17:53:30;22.24;61.73
70170;DHT22;57543;45.442;9.212;2022-10-16T17:56:33;22.24;61.76
70170;DHT22;57543;45.442;9.212;2022-10-16T17:59:38;22.24;61.66
70170;DHT22;57543;45.442;9.212;2022-10-16T18:02:42;22.27;61.45
70170;DHT22;57543;45.442;9.212;2022-10-16T18:05:46;22.28;62.22
70170;DHT22;57543;45.442;9.212;2022-10-16T18:08:50;22.21;63.01
70170;DHT22;57543;45.442;9.212;2022-10-16T18:11:54;22.12;63.25
70170;DHT22;57543;45.442;9.212;2022-10-16T18:15:02;22.10;62.81
70170;DHT22;57543;45.442;9.212;2022-10-16T18:18:06;22.00;62.80
70170;DHT22;57543;45.442;9.212;2022-10-16T18:21:12;21.89;63.13
70170;DHT22;57543;45.442;9.212;2022-10-16T18:24:16;21.83;62.95
70170;DHT22;57543;45.442;9.212;2022-10-16T18:27:20;21.82;62.82
70170;DHT22;57543;45.442;9.212;2022-10-16T18:30:24;21.86;63.27
70170;DHT22;57543;45.442;9.212;2022-10-16T18:33:27;21.93;63.39
70170;DHT22;57543;45.442;9.212;2022-10-16T18:36:34;21.89;63.75
70170;DHT22;57543;45.442;9.212;2022-10-16T18:39:37;21.86;63.94
70170;DHT22;57543;45.442;9.212;2022-10-16T18:42:41;21.86;64.01
70170;DHT22;57543;45.442;9.212;2022-10-16T18:46:00;21.79;64.21
70170;DHT22;57543;45.442;9.212;2022-10-16T18:49:05;21.83;64.10
70170;DHT22;57543;45.442;9.212;2022-10-16T18:52:09;21.77;64.03
70170;DHT22;57543;45.442;9.212;2022-10-16T18:55:12;21.72;64.23
70170;DHT22;57543;45.442;9.212;2022-10-16T18:58:16;21.66;64.53
70170;DHT22;57543;45.442;9.212;2022-10-16T19:01:22;21.59;64.67
70170;DHT22;57543;45.442;9.212;2022-10-16T19:04:26;21.55;65.13
70170;DHT22;57543;45.442;9.212;2022-10-16T19:07:30;21.56;65.10
70170;DHT22;57543;45.442;9.212;2022-10-16T19:10:36;21.50;65.19
70170;DHT22;57543;45.442;9.212;2022-10-16T19:13:40;21.50;65.18
70170;DHT22;57543;45.442;9.212;2022-10-16T19:16:44;21.46;65.40
70170;DHT22;57543;45.442;9.212;2022-10-16T19:19:48;21.45;65.23
70170;DHT22;57543;45.442;9.212;2022-10-16T19:22:51;21.45;65.17
70170;DHT22;57543;45.442;9.212;2022-10-16T19:26:07;21.35;65.51
70170;DHT22;57543;45.442;9.212;2022-10-16T19:29:12;21.34;65.71
70170;DHT22;57543;45.442;9.212;2022-10-16T19:32:16;21.31;65.81
70170;DHT22;57543;45.442;9.212;2022-10-16T19:35:21;21.28;66.07
70170;DHT22;57543;45.442;9.212;2022-10-16T19:38:24;21.22;66.27
70170;DHT22;57543;45.442;9.212;2022-10-16T19:41:29;21.21;66.32
70170;DHT22;57543;45.442;9.212;2022-10-16T19:44:33;21.18;66.34
70170;DHT22;57543;45.442;9.212;2022-10-16T19:47:37;21.24;66.39
70170;DHT22;57543;45.442;9.212;2022-10-16T19:50:44;21.17;66.12
70170;DHT22;57543;45.442;9.212;2022-10-16T19:53:52;21.14;66.45
70170;DHT22;57543;45.442;9.212;2022-10-16T19:56:56;21.17;66.52
70170;DHT22;57543;45.442;9.212;2022-10-16T20:00:06;21.20;66.08
70170;DHT22;57543;45.442;9.212;2022-10-16T20:03:11;21.15;65.73
70170;DHT22;57543;45.442;9.212;2022-10-16T20:06:16;21.11;65.69
70170;DHT22;57543;45.442;9.212;2022-10-16T20:09:20;21.07;65.92
70170;DHT22;57543;45.442;9.212;2022-10-16T20:12:24;21.11;66.10
70170;DHT22;57543;45.442;9.212;2022-10-16T20:15:28;21.10;66.27
70170;DHT22;57543;45.442;9.212;2022-10-16T20:18:32;21.10;65.93
70170;DHT22;57543;45.442;9.212;2022-10-16T20:21:38;21.07;65.79
70170;DHT22;57543;45.442;9.212;2022-10-16T20:24:42;21.03;65.78
70170;DHT22;57543;45.442;9.212;2022-10-16T20:27:46;21.03;65.79
70170;DHT22;57543;45.442;9.212;2022-10-16T20:30:49;21.08;65.58
70170;DHT22;57543;45.442;9.212;2022-10-16T20:33:54;21.07;65.74
70170;DHT22;57543;45.442;9.212;2022-10-16T20:36:58;21.04;65.86
70170;DHT22;57543;45.442;9.212;2022-10-16T20:40:02;21.08;65.79
70170;DHT22;57543;45.442;9.212;2022-10-16T20:43:07;21.01;65.96
70170;DHT22;57543;45.442;9.212;2022-10-16T20:46:15;21.03;65.98
70170;DHT22;57543;45.442;9.212;2022-10-16T20:49:19;21.03;66.08
70170;DHT22;57543;45.442;9.212;2022-10-16T20:52:23;21.04;66.28
70170;DHT22;57543;45.442;9.212;2022-10-16T20:55:28;21.01;66.61
70170;DHT22;57543;45.442;9.212;2022-10-16T20:58:31;20.98;66.78
70170;DHT22;57543;45.442;9.212;2022-10-16T21:01:35;21.00;66.78
70170;DHT22;57543;45.442;9.212;2022-10-16T21:04:39;20.98;66.88